KEVV/EVV METAR and TAF weather

Enter ICAO airport designator
Station Type Date Time Source
KEVV METAR 2022/10/01 07:54 UTC NOAA

KEVV 010754Z AUTO 03006KT 10SM CLR 10/07 A3005 RMK AO2 SLP174 T01000067 $


Station Type Date Time Source
KEVV Decoded METAR 2022/10/01 07:54 UTC NOAA

EVANSVILLE REGIONAL, IN, United States (KEVV) 38-02N 087-32W 117M
Oct 01, 2022 - 03:54 AM EDT / 2022.10.01 0754 UTC
Wind: from the NNE (030 degrees) at 7 MPH (6 KT):0
Visibility: 10 mile(s):0
Sky conditions: clear
Temperature: 50.0 F (10.0 C)
Dew Point: 44.1 F (6.7 C)
Relative Humidity: 79%
Pressure (altimeter): 30.05 in. Hg (1017 hPa)
ob: KEVV 010754Z AUTO 03006KT 10SM CLR 10/07 A3005 RMK AO2 SLP174 T01000067
cycle: 8

Station Type Date Time Source
KEVV TAF 2022/10/01 06:22 UTC NOAA

TAF KEVV 010520Z 0106/0206 02004KT P6SM SKC
FM011500 01009G15KT P6SM SKC
FM012300 01004KT P6SM SKC
FM020300 01002KT P6SM SKC

Example: see airport list